Time;durP1;ratioP1;P1;durP2;ratioP2;P2;SDS_P1;SDS_P2;PMS_P1;PMS_P2;Temp;Humidity;BMP_temperature;BMP_pressure;BME280_temperature;BME280_humidity;BME280_pressure;Samples;Min_cycle;Max_cycle;Signal;HPM_P1;HPM_P2
2023/10/12 00:02:04;;;;;;;16.67;12.20;;;17.90;89.00;;;;;;5023028;28;20038;-76
2023/10/12 00:04:53;;;;;;;20.15;13.55;;;17.80;89.00;;;;;;5023043;28;20492;-74
2023/10/12 00:07:33;;;;;;;18.85;12.70;;;17.70;89.10;;;;;;5018953;28;20028;-78
2023/10/12 00:12:35;;;;;;;18.70;13.15;;;17.70;89.60;;;;;;5024798;28;20032;-81
2023/10/12 00:15:05;;;;;;;22.42;13.57;;;17.70;89.70;;;;;;5026268;28;20044;-76
2023/10/12 00:17:33;;;;;;;17.95;13.63;;;17.70;89.80;;;;;;5023837;28;20121;-76
2023/10/12 00:19:59;;;;;;;21.38;13.43;;;17.60;90.00;;;;;;5024388;28;20459;-75
2023/10/12 00:22:25;;;;;;;20.00;12.55;;;17.60;90.30;;;;;;5020061;28;20029;-75
2023/10/12 00:24:52;;;;;;;19.00;13.77;;;17.60;90.60;;;;;;5021595;28;20032;-73
2023/10/12 00:27:18;;;;;;;20.08;12.77;;;17.60;90.80;;;;;;5019043;28;20017;-81
2023/10/12 00:29:48;;;;;;;21.15;13.65;;;17.50;90.70;;;;;;5021510;28;20045;-74
2023/10/12 00:32:14;;;;;;;18.25;13.43;;;17.50;91.10;;;;;;5023643;28;20033;-76
2023/10/12 00:34:48;;;;;;;18.98;13.35;;;17.50;91.30;;;;;;5022630;28;20369;-76
2023/10/12 00:37:14;;;;;;;22.92;14.55;;;17.50;91.40;;;;;;5017688;28;20072;-79
2023/10/12 00:39:47;;;;;;;22.05;14.90;;;17.50;91.60;;;;;;5022018;28;20045;-74
2023/10/12 00:42:17;;;;;;;21.23;15.18;;;17.40;91.90;;;;;;5020045;28;20160;-73
2023/10/12 00:44:46;;;;;;;21.63;15.20;;;17.40;92.10;;;;;;5023142;28;20030;-78
2023/10/12 00:47:13;;;;;;;17.83;13.57;;;17.40;92.30;;;;;;5017239;28;20025;-77
2023/10/12 00:49:48;;;;;;;23.02;15.13;;;17.30;92.40;;;;;;5020672;28;20458;-76
2023/10/12 00:52:23;;;;;;;22.35;16.05;;;17.30;92.60;;;;;;5019130;28;20109;-73
2023/10/12 00:54:56;;;;;;;22.92;16.27;;;17.30;92.80;;;;;;5013982;28;20055;-76
2023/10/12 00:57:22;;;;;;;21.90;16.77;;;17.30;92.90;;;;;;5019016;28;20042;-76
2023/10/12 00:59:51;;;;;;;20.10;15.65;;;17.30;92.90;;;;;;5019521;28;20046;-77
2023/10/12 01:02:20;;;;;;;22.33;15.45;;;17.30;93.10;;;;;;5011026;28;20056;-76
2023/10/12 01:04:48;;;;;;;24.02;16.13;;;17.30;93.20;;;;;;5016918;28;20053;-72
2023/10/12 01:07:37;;;;;;;22.40;15.27;;;17.20;93.20;;;;;;5017870;28;20033;-78
2023/10/12 01:10:03;;;;;;;20.55;15.02;;;17.20;93.40;;;;;;5015937;28;20456;-75
2023/10/12 01:12:31;;;;;;;18.88;14.65;;;17.20;93.40;;;;;;5022005;28;20029;-82
2023/10/12 01:14:57;;;;;;;22.38;15.50;;;17.20;93.50;;;;;;5018972;28;20041;-78
2023/10/12 01:17:29;;;;;;;21.13;15.35;;;17.20;93.50;;;;;;5014284;28;20052;-75
2023/10/12 01:19:55;;;;;;;21.13;16.27;;;17.10;93.60;;;;;;5020590;28;20575;-77
2023/10/12 01:22:27;;;;;;;21.90;16.40;;;17.20;93.70;;;;;;5020370;28;21189;-75
2023/10/12 01:27:21;;;;;;;21.85;16.05;;;17.10;93.70;;;;;;5019960;28;20045;-77
2023/10/12 01:29:51;;;;;;;20.50;15.18;;;17.10;93.70;;;;;;5020363;28;20042;-81
2023/10/12 01:34:51;;;;;;;21.27;15.40;;;17.10;93.90;;;;;;5020355;28;20033;-75
2023/10/12 01:37:26;;;;;;;23.63;16.55;;;17.10;94.00;;;;;;5017391;28;20570;-75
2023/10/12 01:43:03;;;;;;;25.48;16.55;;;17.10;94.10;;;;;;5014088;28;20170;-77
2023/10/12 01:50:38;;;;;;;;;;;17.00;94.50;;;;;;5021861;28;20095;-75
2023/10/12 01:53:29;;;;;;;24.63;16.77;;;17.10;94.60;;;;;;5017942;28;20680;-75
2023/10/12 01:55:55;;;;;;;23.15;16.52;;;17.00;94.80;;;;;;5021713;28;20041;-76
2023/10/12 01:58:35;;;;;;;21.92;16.42;;;16.90;94.80;;;;;;5016327;28;20461;-76
2023/10/12 02:01:05;;;;;;;20.80;15.77;;;16.90;94.80;;;;;;5014983;28;20913;-76
2023/10/12 02:03:32;;;;;;;21.20;15.98;;;16.90;94.90;;;;;;5007240;28;20085;-75
2023/10/12 02:06:16;;;;;;;20.58;15.00;;;16.90;94.90;;;;;;5019716;28;20053;-75
2023/10/12 02:08:46;;;;;;;24.40;16.27;;;16.90;95.00;;;;;;5016481;28;20068;-81
2023/10/12 02:13:41;;;;;;;21.55;15.13;;;16.80;95.10;;;;;;5014987;28;20257;-80
2023/10/12 02:16:07;;;;;;;20.80;15.13;;;16.80;95.10;;;;;;5019484;28;20025;-76
2023/10/12 02:18:34;;;;;;;20.80;16.02;;;16.80;95.20;;;;;;5012590;28;20132;-75
2023/10/12 02:23:56;;;;;;;22.33;16.08;;;16.80;95.30;;;;;;5013129;28;20037;-76
2023/10/12 02:27:16;;;;;;;21.92;16.33;;;16.80;95.30;;;;;;5012365;28;20532;-79
2023/10/12 02:29:23;;;;;;;18.55;15.40;;;16.70;95.20;;;;;;5010186;28;20034;-76
2023/10/12 02:34:31;;;;;;;23.65;16.63;;;16.70;95.40;;;;;;5016092;28;20033;-79
2023/10/12 02:39:42;;;;;;;24.48;17.05;;;16.70;95.80;;;;;;5014370;28;20049;-74
2023/10/12 02:47:22;;;;;;;26.55;18.83;;;16.70;95.90;;;;;;5018680;28;20029;-75
2023/10/12 02:50:00;;;;;;;23.20;17.10;;;16.60;96.00;;;;;;5013332;28;20033;-73
2023/10/12 02:52:27;;;;;;;23.35;18.00;;;16.60;96.00;;;;;;5016558;28;20041;-75
2023/10/12 02:54:55;;;;;;;25.30;19.08;;;16.60;96.00;;;;;;5015229;28;20040;-80
2023/10/12 02:57:24;;;;;;;27.58;18.90;;;16.60;96.10;;;;;;5016391;28;20629;-75
2023/10/12 03:00:01;;;;;;;25.50;18.63;;;16.60;96.20;;;;;;5013442;28;20133;-77
2023/10/12 03:02:33;;;;;;;24.42;18.70;;;16.60;96.30;;;;;;5015371;28;20549;-76
2023/10/12 03:05:17;;;;;;;25.23;18.40;;;16.60;96.30;;;;;;5011617;28;20033;-77
2023/10/12 03:07:44;;;;;;;27.75;18.15;;;16.60;96.30;;;;;;5014152;28;20052;-78
2023/10/12 03:10:26;;;;;;;30.35;19.65;;;16.50;96.40;;;;;;5014473;28;20119;-79
2023/10/12 03:12:55;;;;;;;29.67;19.23;;;16.60;96.40;;;;;;5020128;28;20303;-77
2023/10/12 03:15:41;;;;;;;25.40;17.98;;;16.50;96.50;;;;;;5017371;28;20186;-78
2023/10/12 03:18:11;;;;;;;27.73;19.08;;;16.50;96.60;;;;;;5019953;28;20649;-76
2023/10/12 03:20:37;;;;;;;26.55;19.55;;;16.50;96.70;;;;;;5024117;28;20140;-78
2023/10/12 03:23:14;;;;;;;28.73;19.60;;;16.50;96.70;;;;;;5020801;28;20447;-76
2023/10/12 03:25:43;;;;;;;29.10;19.23;;;16.50;96.70;;;;;;5028430;28;20045;-79
2023/10/12 03:28:16;;;;;;;25.90;19.77;;;16.50;96.80;;;;;;5027622;28;20025;-82
2023/10/12 03:30:53;;;;;;;27.88;18.52;;;16.40;96.90;;;;;;5027428;28;20042;-78
2023/10/12 03:33:19;;;;;;;23.33;17.10;;;16.50;96.90;;;;;;5023603;28;20063;-80
2023/10/12 03:38:33;;;;;;;26.08;19.77;;;16.50;97.00;;;;;;5015886;28;20107;-80
2023/10/12 03:44:02;;;;;;;29.52;19.75;;;16.50;97.10;;;;;;5001269;28;20033;-76
2023/10/12 03:46:28;;;;;;;27.83;19.67;;;16.50;97.10;;;;;;5015550;28;20467;-77
2023/10/12 03:51:39;;;;;;;26.48;19.65;;;16.50;97.10;;;;;;5024541;28;20319;-76
2023/10/12 03:54:25;;;;;;;26.75;19.55;;;16.40;97.00;;;;;;5018371;28;20482;-74
2023/10/12 03:56:53;;;;;;;24.10;18.20;;;16.50;97.10;;;;;;5022372;28;21843;-75
2023/10/12 03:59:25;;;;;;;24.58;17.40;;;16.50;97.10;;;;;;5020581;28;20543;-75
2023/10/12 04:01:54;;;;;;;30.05;20.95;;;16.50;97.10;;;;;;5024500;28;20503;-76
2023/10/12 04:04:29;;;;;;;27.42;19.33;;;16.40;97.10;;;;;;5017829;28;20103;-77
2023/10/12 04:09:43;;;;;;;24.52;18.83;;;16.50;97.10;;;;;;5016479;28;20159;-76
2023/10/12 04:14:49;;;;;;;25.00;18.83;;;16.50;97.10;;;;;;5020106;28;20052;-76
2023/10/12 04:17:41;;;;;;;24.55;18.65;;;16.50;97.20;;;;;;5020173;28;20025;-80
2023/10/12 04:20:17;;;;;;;28.35;20.83;;;16.50;97.20;;;;;;5021240;28;20133;-79
2023/10/12 04:28:38;;;;;;;27.95;20.88;;;16.50;97.10;;;;;;5015669;28;20044;-77
2023/10/12 04:31:20;;;;;;;28.30;20.52;;;16.50;97.10;;;;;;5008677;28;20074;-75
2023/10/12 04:34:15;;;;;;;31.73;22.38;;;16.50;97.10;;;;;;5018111;28;20030;-75
2023/10/12 04:36:24;;;;;;;35.50;21.85;;;16.50;97.20;;;;;;5010050;28;20471;-75
2023/10/12 04:38:57;;;;;;;28.75;21.08;;;16.50;97.20;;;;;;5018211;28;20397;-78
2023/10/12 04:41:25;;;;;;;26.88;21.42;;;16.50;97.20;;;;;;5007770;28;20539;-76
2023/10/12 04:43:53;;;;;;;26.20;20.85;;;16.40;97.20;;;;;;5012155;28;20017;-78
2023/10/12 04:48:48;;;;;;;28.00;19.63;;;16.50;97.20;;;;;;5018565;28;20723;-77
2023/10/12 04:51:21;;;;;;;25.25;19.65;;;16.50;97.30;;;;;;5014774;28;20045;-75
2023/10/12 04:53:57;;;;;;;30.17;22.38;;;16.50;97.20;;;;;;5011935;28;20484;-79
2023/10/12 04:56:26;;;;;;;28.23;21.38;;;16.50;97.20;;;;;;5010076;28;20095;-78
2023/10/12 04:58:59;;;;;;;26.00;20.25;;;16.50;97.30;;;;;;5013425;28;20030;-79
2023/10/12 05:01:39;;;;;;;27.92;20.90;;;16.50;97.40;;;;;;5010494;28;20037;-76
2023/10/12 05:04:19;;;;;;;30.98;21.95;;;16.50;97.30;;;;;;5009108;28;20388;-74
2023/10/12 05:06:56;;;;;;;30.80;22.65;;;16.50;97.40;;;;;;5010831;28;20132;-78
2023/10/12 05:09:22;;;;;;;29.45;22.13;;;16.50;97.40;;;;;;5010093;28;20124;-74
2023/10/12 05:11:48;;;;;;;30.63;21.75;;;16.50;97.40;;;;;;5008619;28;20032;-73
2023/10/12 05:14:14;;;;;;;27.45;20.40;;;16.50;97.50;;;;;;5015946;28;20025;-80
2023/10/12 05:16:42;;;;;;;29.33;21.30;;;16.50;97.50;;;;;;5012644;28;20046;-76
2023/10/12 05:19:10;;;;;;;32.22;21.08;;;16.50;97.50;;;;;;5010346;28;20730;-76
2023/10/12 05:21:36;;;;;;;32.10;23.38;;;16.50;97.40;;;;;;5012667;28;20041;-76
2023/10/12 05:24:01;;;;;;;28.65;20.55;;;16.50;97.40;;;;;;5028868;28;20313;-82
2023/10/12 05:26:27;;;;;;;27.55;20.80;;;16.50;97.40;;;;;;5029565;28;20075;-81
2023/10/12 05:31:39;;;;;;;35.88;22.88;;;16.50;97.40;;;;;;5017807;28;20052;-76
2023/10/12 05:36:49;;;;;;;28.13;20.92;;;16.50;97.40;;;;;;5017165;28;20062;-80
2023/10/12 05:39:16;;;;;;;26.42;20.98;;;16.40;97.30;;;;;;5014841;28;20674;-77
2023/10/12 05:41:43;;;;;;;30.48;21.92;;;16.40;97.40;;;;;;5013356;28;20051;-78
2023/10/12 05:44:09;;;;;;;24.80;20.48;;;16.40;97.40;;;;;;5020435;28;20629;-76
2023/10/12 05:46:35;;;;;;;24.85;20.75;;;16.40;97.40;;;;;;5015598;28;20113;-72
2023/10/12 05:49:11;;;;;;;26.65;21.08;;;16.40;97.40;;;;;;5014585;28;20108;-74
2023/10/12 05:51:37;;;;;;;26.35;21.10;;;16.40;97.20;;;;;;5016003;28;20068;-75
2023/10/12 05:54:03;;;;;;;29.15;20.20;;;16.40;97.20;;;;;;5015445;28;20595;-74
2023/10/12 05:56:34;;;;;;;25.67;19.25;;;16.40;97.10;;;;;;5016252;28;20050;-73
2023/10/12 05:59:00;;;;;;;25.95;20.30;;;16.40;97.10;;;;;;5016285;28;20675;-73
2023/10/12 06:01:32;;;;;;;28.38;19.50;;;16.30;97.10;;;;;;5011304;28;20037;-75
2023/10/12 06:03:59;;;;;;;28.80;21.02;;;16.30;97.10;;;;;;5017876;28;20036;-75
2023/10/12 06:06:25;;;;;;;24.52;18.25;;;16.30;97.10;;;;;;5014456;28;20594;-75
2023/10/12 06:08:53;;;;;;;26.38;19.70;;;16.30;97.10;;;;;;5014957;28;20436;-74
2023/10/12 06:11:24;;;;;;;27.27;20.40;;;16.20;97.00;;;;;;5018408;28;20036;-74
2023/10/12 06:13:52;;;;;;;26.80;20.13;;;16.30;97.20;;;;;;5018532;28;20018;-70
2023/10/12 06:16:20;;;;;;;26.75;19.90;;;16.30;97.00;;;;;;5010088;28;20041;-75
2023/10/12 06:18:46;;;;;;;25.58;18.63;;;16.30;97.10;;;;;;5019505;28;20034;-76
2023/10/12 06:21:19;;;;;;;25.77;19.17;;;16.20;97.10;;;;;;5009970;28;20030;-71
2023/10/12 06:23:50;;;;;;;21.90;17.20;;;16.30;97.10;;;;;;5016584;28;20112;-76
2023/10/12 06:26:28;;;;;;;24.75;17.05;;;16.30;96.90;;;;;;5010703;28;20060;-73
2023/10/12 06:28:58;;;;;;;22.55;17.23;;;16.20;96.80;;;;;;5014894;28;20025;-73
2023/10/12 06:31:30;;;;;;;22.08;17.17;;;16.20;96.70;;;;;;5010149;28;20054;-75
2023/10/12 06:33:59;;;;;;;23.52;17.70;;;16.20;96.70;;;;;;5014195;28;20026;-73
2023/10/12 06:36:46;;;;;;;22.23;16.58;;;16.20;96.50;;;;;;5014882;28;20061;-73
2023/10/12 06:44:22;;;;;;;20.15;15.55;;;16.20;96.50;;;;;;5013315;28;20111;-72
2023/10/12 06:46:49;;;;;;;20.77;16.55;;;16.20;96.50;;;;;;5012359;28;20049;-74
2023/10/12 06:49:28;;;;;;;20.05;16.25;;;16.20;96.40;;;;;;5013957;28;20029;-75
2023/10/12 06:52:01;;;;;;;23.30;17.65;;;16.30;96.30;;;;;;5011034;28;20065;-74
2023/10/12 06:55:21;;;;;;;25.83;17.10;;;16.30;96.20;;;;;;5017281;28;20024;-75
2023/10/12 06:59:52;;;;;;;21.38;15.10;;;16.30;96.10;;;;;;5017740;28;20048;-76
2023/10/12 07:02:27;;;;;;;21.08;16.75;;;16.30;96.00;;;;;;5013363;28;20026;-74
2023/10/12 07:05:04;;;;;;;20.35;15.10;;;16.40;96.00;;;;;;5017358;28;20527;-72
2023/10/12 07:07:36;;;;;;;20.45;15.48;;;16.40;95.90;;;;;;5019728;28;20033;-73
2023/10/12 07:12:37;;;;;;;25.05;15.80;;;16.40;95.90;;;;;;5014987;28;20154;-74
2023/10/12 07:15:10;;;;;;;20.45;14.85;;;16.50;95.90;;;;;;5014450;28;20026;-74
2023/10/12 07:17:36;;;;;;;19.60;14.85;;;16.50;95.90;;;;;;5013933;28;20028;-74
2023/10/12 07:20:06;;;;;;;21.10;16.00;;;16.60;95.70;;;;;;5010897;28;20041;-74
2023/10/12 07:22:37;;;;;;;20.20;14.50;;;16.60;95.60;;;;;;5011677;28;20013;-74
2023/10/12 07:25:04;;;;;;;19.85;15.02;;;16.60;95.50;;;;;;5009517;28;20116;-73
2023/10/12 07:27:48;;;;;;;20.23;14.63;;;16.70;95.60;;;;;;5010991;28;20029;-73
2023/10/12 07:30:22;;;;;;;20.88;14.90;;;16.80;95.50;;;;;;5015163;28;20784;-74
2023/10/12 07:32:59;;;;;;;19.40;15.23;;;16.90;95.30;;;;;;5016472;28;20045;-73
2023/10/12 07:35:32;;;;;;;17.42;12.93;;;16.90;95.30;;;;;;5009933;28;20069;-73
2023/10/12 07:38:02;;;;;;;19.92;14.13;;;17.00;95.20;;;;;;5020626;28;20113;-73
2023/10/12 07:40:36;;;;;;;20.50;13.90;;;17.00;95.10;;;;;;5014399;28;20042;-75
2023/10/12 07:43:05;;;;;;;17.30;13.23;;;17.00;94.90;;;;;;5018734;28;20021;-74
2023/10/12 07:45:38;;;;;;;22.73;14.85;;;17.00;94.70;;;;;;5017833;28;20040;-73
2023/10/12 07:48:09;;;;;;;19.67;13.40;;;17.10;94.60;;;;;;5021020;28;20030;-74
2023/10/12 07:50:47;;;;;;;18.33;13.88;;;17.00;94.50;;;;;;5015428;28;20511;-74
2023/10/12 07:53:24;;;;;;;21.52;14.38;;;17.00;94.50;;;;;;5016776;28;20052;-73
2023/10/12 07:56:00;;;;;;;20.50;14.00;;;17.10;94.30;;;;;;5018085;28;20049;-74
2023/10/12 07:58:29;;;;;;;17.73;13.48;;;17.10;94.30;;;;;;5018343;28;20034;-74
2023/10/12 08:01:19;;;;;;;18.90;14.30;;;17.10;94.20;;;;;;5020926;28;20076;-74
2023/10/12 08:03:50;;;;;;;20.50;13.38;;;17.10;94.30;;;;;;5017785;28;20056;-75
2023/10/12 08:06:42;;;;;;;18.33;13.73;;;17.20;94.30;;;;;;5017016;28;20117;-74
2023/10/12 08:09:19;;;;;;;18.42;13.35;;;17.20;94.10;;;;;;5018512;28;20076;-75
2023/10/12 08:11:45;;;;;;;21.83;13.95;;;17.20;93.90;;;;;;5021870;28;20116;-73
2023/10/12 08:17:25;;;;;;;19.05;13.18;;;17.10;93.50;;;;;;5023855;28;20029;-74
2023/10/12 08:22:29;;;;;;;22.95;13.35;;;17.20;93.80;;;;;;4982851;28;20750;-72
2023/10/12 08:25:04;;;;;;;19.73;12.95;;;17.40;93.80;;;;;;5022155;28;20030;-73
2023/10/12 08:27:43;;;;;;;18.30;13.55;;;17.30;93.70;;;;;;5017450;28;20028;-73
2023/10/12 08:30:13;;;;;;;21.60;13.43;;;17.30;93.50;;;;;;5016251;28;20065;-76
2023/10/12 08:32:55;;;;;;;23.00;14.18;;;17.30;93.40;;;;;;5018481;28;20017;-74
2023/10/12 08:35:36;;;;;;;21.58;13.80;;;17.30;93.30;;;;;;5014685;28;20095;-74
2023/10/12 08:38:11;;;;;;;23.17;14.50;;;17.30;93.40;;;;;;5021377;28;20464;-74
2023/10/12 08:40:56;;;;;;;20.77;12.43;;;17.40;93.50;;;;;;5017807;28;20073;-75
2023/10/12 08:46:07;;;;;;;20.15;13.57;;;17.50;93.50;;;;;;5019559;28;20119;-72
2023/10/12 08:48:35;;;;;;;22.90;14.15;;;17.50;93.30;;;;;;5016659;28;20023;-73
2023/10/12 08:51:09;;;;;;;17.83;12.65;;;17.50;93.10;;;;;;5021384;28;20494;-72
2023/10/12 08:53:39;;;;;;;28.45;14.52;;;17.50;93.30;;;;;;5018161;28;20035;-75
2023/10/12 08:56:08;;;;;;;20.05;13.73;;;17.50;93.10;;;;;;5016598;28;20116;-73
2023/10/12 08:58:46;;;;;;;21.63;13.75;;;17.40;93.40;;;;;;5011829;28;20033;-73
2023/10/12 09:01:22;;;;;;;19.13;14.48;;;17.40;93.70;;;;;;5017976;28;20034;-76
2023/10/12 09:03:53;;;;;;;22.15;14.02;;;17.30;93.90;;;;;;5016253;28;20029;-72
2023/10/12 09:06:53;;;;;;;21.02;14.75;;;17.30;93.90;;;;;;5017014;28;20029;-74
2023/10/12 09:09:48;;;;;;;28.92;14.43;;;17.20;94.10;;;;;;5015667;28;20029;-75
2023/10/12 09:12:03;;;;;;;23.13;13.77;;;17.20;94.40;;;;;;5017506;28;20753;-73
2023/10/12 09:14:32;;;;;;;22.20;15.48;;;17.20;94.60;;;;;;5016265;28;20108;-76
2023/10/12 09:17:03;;;;;;;19.52;14.60;;;17.10;94.70;;;;;;5015646;28;20029;-74
2023/10/12 09:19:29;;;;;;;19.45;14.60;;;17.10;94.90;;;;;;5013840;28;20471;-76
2023/10/12 09:22:00;;;;;;;20.02;14.80;;;17.20;94.90;;;;;;5018413;28;20113;-74
2023/10/12 09:24:29;;;;;;;20.90;14.18;;;17.30;94.70;;;;;;5014856;28;20051;-73
2023/10/12 09:27:11;;;;;;;21.83;14.77;;;17.40;94.80;;;;;;5019923;28;20095;-75
2023/10/12 09:29:42;;;;;;;20.35;13.48;;;17.40;94.50;;;;;;5011738;28;20036;-72
2023/10/12 09:32:24;;;;;;;16.27;13.00;;;17.40;94.60;;;;;;5015393;28;20116;-74
2023/10/12 09:37:21;;;;;;;17.95;12.75;;;17.80;94.10;;;;;;5021082;28;20072;-76
2023/10/12 09:39:48;;;;;;;16.02;12.50;;;17.90;93.80;;;;;;5014474;28;20111;-73
2023/10/12 09:42:24;;;;;;;19.80;12.40;;;18.00;92.90;;;;;;5020272;28;20043;-75
2023/10/12 09:45:01;;;;;;;17.02;12.32;;;18.10;92.50;;;;;;5015155;28;20135;-74
2023/10/12 09:47:43;;;;;;;16.42;12.13;;;18.30;92.30;;;;;;5019393;28;20095;-75
2023/10/12 09:50:13;;;;;;;17.80;12.30;;;18.40;92.40;;;;;;5016312;28;20467;-74
2023/10/12 09:52:57;;;;;;;16.77;12.38;;;18.60;91.80;;;;;;5015858;28;20056;-77
2023/10/12 09:55:27;;;;;;;17.27;11.65;;;18.60;91.50;;;;;;5014279;28;20084;-73
2023/10/12 09:57:54;;;;;;;15.85;11.35;;;18.80;91.30;;;;;;5021190;28;20049;-76
2023/10/12 10:00:55;;;;;;;18.38;11.70;;;18.70;90.80;;;;;;5017311;28;20041;-74
2023/10/12 10:03:17;;;;;;;17.05;11.70;;;18.70;90.80;;;;;;5013760;28;20030;-75
2023/10/12 10:05:52;;;;;;;17.17;12.45;;;18.60;91.10;;;;;;5014742;28;20034;-76
2023/10/12 10:08:19;;;;;;;16.38;12.13;;;18.50;91.30;;;;;;5010421;28;20024;-76
2023/10/12 10:10:48;;;;;;;15.75;12.20;;;18.50;91.70;;;;;;5014154;28;20034;-73
2023/10/12 10:13:37;;;;;;;17.55;12.77;;;18.40;91.80;;;;;;5018341;28;20028;-75
2023/10/12 10:16:08;;;;;;;19.30;12.88;;;18.40;92.00;;;;;;5016199;28;20057;-73
2023/10/12 10:18:48;;;;;;;21.13;12.88;;;18.20;92.10;;;;;;5013697;28;20036;-76
2023/10/12 10:21:22;;;;;;;17.45;12.48;;;18.10;92.40;;;;;;5017081;28;20543;-75
2023/10/12 10:23:52;;;;;;;22.10;13.10;;;18.10;92.50;;;;;;5020340;28;20478;-73
2023/10/12 10:26:30;;;;;;;17.90;13.23;;;18.00;92.80;;;;;;5018999;28;20373;-75
2023/10/12 10:29:05;;;;;;;20.05;14.50;;;17.90;93.20;;;;;;5015635;28;20032;-74
2023/10/12 10:31:37;;;;;;;20.42;13.50;;;17.90;93.30;;;;;;5016081;28;20116;-76
2023/10/12 10:34:06;;;;;;;25.58;14.38;;;17.80;93.60;;;;;;5011339;28;20018;-76
2023/10/12 10:36:36;;;;;;;20.80;14.05;;;17.80;93.90;;;;;;5017878;28;20815;-73
2023/10/12 10:39:28;;;;;;;19.95;14.43;;;17.70;94.10;;;;;;5015474;28;20076;-73
2023/10/12 10:41:56;;;;;;;22.52;15.88;;;17.60;94.30;;;;;;5015450;28;20454;-72
2023/10/12 10:44:26;;;;;;;19.77;15.27;;;17.60;94.60;;;;;;5026856;28;20056;-74
2023/10/12 10:47:00;;;;;;;21.65;14.73;;;17.60;94.80;;;;;;5024277;28;20029;-73
2023/10/12 10:49:32;;;;;;;24.75;14.75;;;17.60;94.90;;;;;;5012760;28;20056;-75
2023/10/12 10:54:33;;;;;;;24.10;14.38;;;17.70;94.90;;;;;;4988932;28;20044;-74
2023/10/12 10:57:05;;;;;;;21.25;14.70;;;17.80;95.00;;;;;;4993674;28;20053;-72
2023/10/12 10:59:34;;;;;;;22.73;14.32;;;17.80;94.90;;;;;;4998798;28;20033;-73
2023/10/12 11:02:00;;;;;;;18.77;14.10;;;17.80;95.00;;;;;;4996233;28;20038;-74
2023/10/12 11:07:17;;;;;;;22.85;15.70;;;17.80;95.00;;;;;;4992121;28;20633;-75
2023/10/12 11:10:31;;;;;;;21.13;15.65;;;17.70;95.00;;;;;;5008286;28;20064;-74
2023/10/12 11:12:36;;;;;;;20.00;15.73;;;17.80;95.20;;;;;;5007839;28;20041;-75
2023/10/12 11:15:11;;;;;;;21.45;15.25;;;17.80;95.10;;;;;;5017594;28;20030;-76
2023/10/12 11:17:56;;;;;;;23.67;15.93;;;17.70;95.20;;;;;;5013343;28;20049;-74
2023/10/12 11:23:20;;;;;;;23.02;16.00;;;17.60;95.40;;;;;;4994068;28;20030;-73
2023/10/12 11:25:46;;;;;;;24.17;16.20;;;17.70;95.80;;;;;;5017212;28;20500;-73
2023/10/12 11:28:20;;;;;;;22.10;16.48;;;17.70;95.70;;;;;;5014294;28;20030;-72
2023/10/12 11:30:46;;;;;;;23.75;15.70;;;17.70;96.00;;;;;;5014540;28;20828;-74
2023/10/12 11:33:12;;;;;;;21.48;16.10;;;17.60;96.00;;;;;;5018856;28;20042;-72
2023/10/12 11:35:43;;;;;;;21.58;16.40;;;17.60;96.20;;;;;;5017487;28;20150;-74
2023/10/12 11:38:19;;;;;;;21.95;15.93;;;17.60;96.20;;;;;;5021505;28;20376;-72
2023/10/12 11:40:48;;;;;;;24.27;17.17;;;17.60;96.20;;;;;;5018935;28;20033;-73
2023/10/12 11:43:14;;;;;;;20.98;16.02;;;17.50;96.40;;;;;;5022642;28;20021;-74
2023/10/12 11:46:05;;;;;;;22.30;17.60;;;17.50;96.60;;;;;;5020596;28;20056;-74
2023/10/12 11:48:31;;;;;;;21.58;15.77;;;17.40;96.70;;;;;;5018063;28;20021;-74
2023/10/12 11:51:10;;;;;;;22.88;17.02;;;17.40;96.80;;;;;;5020332;28;20041;-73
2023/10/12 11:53:38;;;;;;;22.02;16.23;;;17.40;96.90;;;;;;5021495;28;20125;-74
2023/10/12 11:56:17;;;;;;;21.02;17.13;;;17.40;97.00;;;;;;5018935;28;20128;-73
2023/10/12 11:58:51;;;;;;;18.92;16.30;;;17.40;97.10;;;;;;5016933;28;20029;-74
2023/10/12 12:01:18;;;;;;;27.90;23.48;;;17.40;97.30;;;;;;5020401;28;20144;-74
2023/10/12 12:03:45;;;;;;;22.40;20.00;;;17.50;97.30;;;;;;5018187;28;20025;-73
2023/10/12 12:06:21;;;;;;;24.38;19.95;;;17.40;97.20;;;;;;5021607;28;20025;-75
2023/10/12 12:08:47;;;;;;;22.30;18.67;;;17.40;97.30;;;;;;5021147;28;20037;-76
2023/10/12 12:11:15;;;;;;;22.75;19.15;;;17.40;97.40;;;;;;5015468;28;20026;-73
2023/10/12 12:13:47;;;;;;;20.85;17.95;;;17.40;97.50;;;;;;5015939;28;20022;-74
2023/10/12 12:16:19;;;;;;;32.53;29.10;;;17.40;97.50;;;;;;5019120;28;20087;-76
2023/10/12 12:18:51;;;;;;;23.95;21.23;;;17.50;97.60;;;;;;5021789;28;20049;-77
2023/10/12 12:21:18;;;;;;;22.20;18.27;;;17.60;97.60;;;;;;5017769;28;20701;-73
2023/10/12 12:23:53;;;;;;;22.42;18.33;;;17.60;97.50;;;;;;5020638;28;20116;-74
2023/10/12 12:26:19;;;;;;;23.88;17.70;;;17.60;97.50;;;;;;5019919;28;20025;-72
2023/10/12 12:28:45;;;;;;;22.38;16.63;;;17.70;97.40;;;;;;5020103;28;20041;-77
2023/10/12 12:31:15;;;;;;;19.08;16.98;;;17.60;97.40;;;;;;5018832;28;20033;-74
2023/10/12 12:33:43;;;;;;;26.15;17.33;;;17.60;97.40;;;;;;5015169;28;20025;-75
2023/10/12 12:36:13;;;;;;;22.60;18.08;;;17.80;97.50;;;;;;5009226;28;20068;-73
2023/10/12 12:41:18;;;;;;;22.30;17.48;;;17.80;97.30;;;;;;5015610;28;20061;-73
2023/10/12 12:43:45;;;;;;;22.45;17.70;;;17.90;97.30;;;;;;5015816;28;20967;-74
2023/10/12 12:46:12;;;;;;;24.65;18.73;;;17.90;97.30;;;;;;5017510;28;21037;-74
2023/10/12 12:48:38;;;;;;;24.80;19.42;;;17.90;97.20;;;;;;5017539;28;20017;-74
2023/10/12 12:51:10;;;;;;;22.92;18.85;;;17.90;97.40;;;;;;5015941;28;20125;-76
2023/10/12 12:53:36;;;;;;;28.88;20.65;;;17.90;97.30;;;;;;5017726;28;20022;-74
2023/10/12 12:56:02;;;;;;;28.67;19.88;;;17.90;97.40;;;;;;5017056;28;20037;-76
2023/10/12 12:58:29;;;;;;;26.42;19.63;;;17.90;97.50;;;;;;5018089;28;20109;-75
2023/10/12 13:00:55;;;;;;;26.15;19.60;;;18.00;97.40;;;;;;5019785;28;20144;-73
2023/10/12 13:03:22;;;;;;;27.35;19.90;;;18.10;97.50;;;;;;5017118;28;20033;-72
2023/10/12 13:05:48;;;;;;;26.23;20.88;;;18.10;97.40;;;;;;5014938;28;20493;-73
2023/10/12 13:08:16;;;;;;;30.25;19.85;;;18.10;97.50;;;;;;5016616;28;20053;-76
2023/10/12 13:10:42;;;;;;;25.77;19.63;;;18.10;97.50;;;;;;5018526;28;20040;-73
2023/10/12 13:13:09;;;;;;;25.20;20.73;;;18.10;97.40;;;;;;5014171;28;20030;-73
2023/10/12 13:15:41;;;;;;;27.33;20.35;;;18.10;97.50;;;;;;5008844;28;20044;-73
2023/10/12 13:18:16;;;;;;;25.17;20.38;;;18.10;97.50;;;;;;5017045;28;20014;-75
2023/10/12 13:20:49;;;;;;;25.02;20.25;;;18.10;97.50;;;;;;5011445;28;20071;-74
2023/10/12 13:23:18;;;;;;;25.63;19.10;;;18.10;97.50;;;;;;5015323;28;20030;-73
2023/10/12 13:25:44;;;;;;;27.08;20.95;;;18.10;97.60;;;;;;5018075;28;20536;-73
2023/10/12 13:28:10;;;;;;;30.00;23.05;;;18.10;97.70;;;;;;5015917;28;20619;-74
2023/10/12 13:30:37;;;;;;;27.38;21.77;;;18.10;97.70;;;;;;5016004;28;20415;-74
2023/10/12 13:33:05;;;;;;;29.33;23.98;;;18.20;97.90;;;;;;5015140;28;20110;-73
2023/10/12 13:35:42;;;;;;;29.05;21.38;;;18.20;98.00;;;;;;5013704;28;20115;-74
2023/10/12 13:38:13;;;;;;;25.90;21.73;;;18.30;98.00;;;;;;5019903;28;20029;-74
2023/10/12 13:40:40;;;;;;;31.42;23.52;;;18.30;98.00;;;;;;5016813;28;20488;-73
2023/10/12 13:43:15;;;;;;;25.77;21.52;;;18.40;98.00;;;;;;5019697;28;20021;-74
2023/10/12 13:45:48;;;;;;;25.67;21.00;;;18.40;97.90;;;;;;5015814;28;20388;-72
2023/10/12 13:48:24;;;;;;;27.08;22.45;;;18.50;98.00;;;;;;5016160;28;20568;-75
2023/10/12 13:50:59;;;;;;;28.98;22.88;;;18.60;98.00;;;;;;5013818;28;20598;-73
2023/10/12 13:53:26;;;;;;;30.65;22.15;;;18.60;98.00;;;;;;5012356;28;20025;-75
2023/10/12 13:55:53;;;;;;;31.77;23.35;;;18.60;98.00;;;;;;5011553;28;20164;-74
2023/10/12 13:58:24;;;;;;;29.48;21.20;;;18.60;98.00;;;;;;5017241;28;20377;-75
2023/10/12 14:00:51;;;;;;;30.75;23.27;;;18.60;98.10;;;;;;5015505;28;20180;-73
2023/10/12 14:03:17;;;;;;;26.48;21.58;;;18.70;98.20;;;;;;5018346;28;20064;-75
2023/10/12 14:05:43;;;;;;;25.70;18.90;;;18.70;98.20;;;;;;5013397;28;20065;-75
2023/10/12 14:08:12;;;;;;;28.63;21.33;;;18.80;98.00;;;;;;5017785;28;20112;-73
2023/10/12 14:10:42;;;;;;;24.40;20.33;;;18.90;98.00;;;;;;5014298;28;20045;-73
2023/10/12 14:13:08;;;;;;;23.95;21.10;;;19.00;98.00;;;;;;5017697;28;20072;-74
2023/10/12 14:15:35;;;;;;;24.27;20.42;;;19.10;97.90;;;;;;5012672;28;20042;-72
2023/10/12 14:18:05;;;;;;;23.05;18.77;;;19.10;97.70;;;;;;5015013;28;20018;-73
2023/10/12 14:20:37;;;;;;;22.48;18.90;;;19.20;97.70;;;;;;5016768;28;20072;-73
2023/10/12 14:23:05;;;;;;;23.15;17.80;;;19.20;97.50;;;;;;5019692;28;20029;-74